sensor_id;sensor_type;location;lat;lon;timestamp;pressure;altitude;pressure_sealevel;temperature;humidity
76819;BME280;65772;51.096;17.006;2024-03-23T00:55:02;99499.58;;;13.49;63.08
76819;BME280;65772;51.096;17.006;2024-03-23T00:57:31;99498.03;;;13.49;63.30
76819;BME280;65772;51.096;17.006;2024-03-23T01:00:01;99495.98;;;13.50;63.47
76819;BME280;65772;51.096;17.006;2024-03-23T01:02:31;99491.34;;;13.50;63.33
76819;BME280;65772;51.096;17.006;2024-03-23T01:05:00;99489.45;;;13.49;63.22
76819;BME280;65772;51.096;17.006;2024-03-23T01:07:30;99484.83;;;13.49;62.71
76819;BME280;65772;51.096;17.006;2024-03-23T01:09:59;99477.95;;;13.48;62.96
76819;BME280;65772;51.096;17.006;2024-03-23T01:12:29;99478.65;;;13.48;62.78
76819;BME280;65772;51.096;17.006;2024-03-23T01:14:58;99470.59;;;13.47;62.92
76819;BME280;65772;51.096;17.006;2024-03-23T01:17:28;99465.77;;;13.47;62.66
76819;BME280;65772;51.096;17.006;2024-03-23T01:19:57;99463.73;;;13.46;62.69
76819;BME280;65772;51.096;17.006;2024-03-23T01:22:27;99462.00;;;13.46;62.60
76819;BME280;65772;51.096;17.006;2024-03-23T01:24:57;99453.95;;;13.46;62.64
76819;BME280;65772;51.096;17.006;2024-03-23T01:27:26;99448.31;;;13.45;62.45
76819;BME280;65772;51.096;17.006;2024-03-23T01:29:56;99440.23;;;13.44;62.47
76819;BME280;65772;51.096;17.006;2024-03-23T01:32:25;99432.87;;;13.43;62.17
76819;BME280;65772;51.096;17.006;2024-03-23T01:34:55;99430.12;;;13.42;62.19
76819;BME280;65772;51.096;17.006;2024-03-23T01:37:24;99423.42;;;13.41;62.06
76819;BME280;65772;51.096;17.006;2024-03-23T01:39:54;99417.94;;;13.40;62.06
76819;BME280;65772;51.096;17.006;2024-03-23T01:42:24;99409.20;;;13.40;62.13
76819;BME280;65772;51.096;17.006;2024-03-23T01:44:53;99403.88;;;13.40;61.65
76819;BME280;65772;51.096;17.006;2024-03-23T01:47:23;99392.23;;;13.39;61.94
76819;BME280;65772;51.096;17.006;2024-03-23T01:49:53;99393.08;;;13.39;61.84
76819;BME280;65772;51.096;17.006;2024-03-23T01:52:23;99393.40;;;13.38;61.73
76819;BME280;65772;51.096;17.006;2024-03-23T01:54:52;99387.58;;;13.36;61.92
76819;BME280;65772;51.096;17.006;2024-03-23T01:57:22;99386.90;;;13.34;61.83
76819;BME280;65772;51.096;17.006;2024-03-23T01:59:51;99382.10;;;13.35;61.75
76819;BME280;65772;51.096;17.006;2024-03-23T02:02:25;99382.43;;;13.37;62.03
76819;BME280;65772;51.096;17.006;2024-03-23T02:04:54;99382.78;;;13.39;61.69
76819;BME280;65772;51.096;17.006;2024-03-23T02:07:24;99382.27;;;13.40;61.72
76819;BME280;65772;51.096;17.006;2024-03-23T02:09:54;99377.98;;;13.40;61.61
76819;BME280;65772;51.096;17.006;2024-03-23T02:12:24;99375.77;;;13.40;61.44
76819;BME280;65772;51.096;17.006;2024-03-23T02:14:54;99371.48;;;13.40;61.20
76819;BME280;65772;51.096;17.006;2024-03-23T02:17:24;99369.08;;;13.40;61.52
76819;BME280;65772;51.096;17.006;2024-03-23T02:19:53;99365.14;;;13.41;61.62
76819;BME280;65772;51.096;17.006;2024-03-23T02:22:23;99364.11;;;13.41;61.59
76819;BME280;65772;51.096;17.006;2024-03-23T02:24:52;99356.91;;;13.40;61.31
76819;BME280;65772;51.096;17.006;2024-03-23T02:27:22;99351.08;;;13.40;61.55
76819;BME280;65772;51.096;17.006;2024-03-23T02:29:52;99341.98;;;13.39;61.47
76819;BME280;65772;51.096;17.006;2024-03-23T02:32:21;99335.12;;;13.38;61.31
76819;BME280;65772;51.096;17.006;2024-03-23T02:34:51;99336.66;;;13.37;61.57
76819;BME280;65772;51.096;17.006;2024-03-23T02:37:20;99340.09;;;13.36;61.55
76819;BME280;65772;51.096;17.006;2024-03-23T02:39:50;99337.70;;;13.35;61.45
76819;BME280;65772;51.096;17.006;2024-03-23T02:42:19;99331.54;;;13.34;61.82
76819;BME280;65772;51.096;17.006;2024-03-23T02:44:49;99325.01;;;13.31;61.50
76819;BME280;65772;51.096;17.006;2024-03-23T02:47:18;99324.31;;;13.29;61.63
76819;BME280;65772;51.096;17.006;2024-03-23T02:49:48;99324.99;;;13.28;61.98
76819;BME280;65772;51.096;17.006;2024-03-23T02:52:17;99323.80;;;13.26;61.62
76819;BME280;65772;51.096;17.006;2024-03-23T02:54:47;99319.35;;;13.23;61.33
76819;BME280;65772;51.096;17.006;2024-03-23T02:57:16;99314.02;;;13.22;61.70
76819;BME280;65772;51.096;17.006;2024-03-23T02:59:46;99305.45;;;13.21;61.38
76819;BME280;65772;51.096;17.006;2024-03-23T03:02:16;99303.73;;;13.19;61.59
76819;BME280;65772;51.096;17.006;2024-03-23T03:04:46;99297.91;;;13.19;61.62
76819;BME280;65772;51.096;17.006;2024-03-23T03:07:16;99297.91;;;13.21;61.55
76819;BME280;65772;51.096;17.006;2024-03-23T03:09:45;99304.61;;;13.23;61.46
76819;BME280;65772;51.096;17.006;2024-03-23T03:12:15;99301.85;;;13.25;61.47
76819;BME280;65772;51.096;17.006;2024-03-23T03:14:44;99298.77;;;13.27;61.44
76819;BME280;65772;51.096;17.006;2024-03-23T03:17:14;99289.17;;;13.28;61.37
76819;BME280;65772;51.096;17.006;2024-03-23T03:19:44;99279.91;;;13.28;61.31
76819;BME280;65772;51.096;17.006;2024-03-23T03:22:13;99284.02;;;13.27;61.31
76819;BME280;65772;51.096;17.006;2024-03-23T03:24:43;99282.31;;;13.26;61.53
76819;BME280;65772;51.096;17.006;2024-03-23T03:27:12;99277.69;;;13.26;61.46
76819;BME280;65772;51.096;17.006;2024-03-23T03:29:42;99278.88;;;13.25;61.72
76819;BME280;65772;51.096;17.006;2024-03-23T03:32:12;99269.63;;;13.25;61.56
76819;BME280;65772;51.096;17.006;2024-03-23T03:34:41;99263.11;;;13.24;61.19
76819;BME280;65772;51.096;17.006;2024-03-23T03:37:11;99258.85;;;13.23;61.57
76819;BME280;65772;51.096;17.006;2024-03-23T03:39:40;99259.70;;;13.22;61.36
76819;BME280;65772;51.096;17.006;2024-03-23T03:42:10;99257.46;;;13.20;61.45
76819;BME280;65772;51.096;17.006;2024-03-23T03:44:39;99260.20;;;13.19;61.42
76819;BME280;65772;51.096;17.006;2024-03-23T03:47:09;99257.63;;;13.17;61.40
76819;BME280;65772;51.096;17.006;2024-03-23T03:49:38;99251.29;;;13.17;61.41
76819;BME280;65772;51.096;17.006;2024-03-23T03:52:08;99248.02;;;13.16;61.55
76819;BME280;65772;51.096;17.006;2024-03-23T03:54:37;99243.56;;;13.15;61.41
76819;BME280;65772;51.096;17.006;2024-03-23T03:57:07;99233.96;;;13.15;61.53
76819;BME280;65772;51.096;17.006;2024-03-23T03:59:36;99231.39;;;13.15;61.59
76819;BME280;65772;51.096;17.006;2024-03-23T04:02:06;99236.20;;;13.15;61.43
76819;BME280;65772;51.096;17.006;2024-03-23T04:04:35;99234.48;;;13.13;61.48
76819;BME280;65772;51.096;17.006;2024-03-23T04:07:05;99238.25;;;13.14;61.61
76819;BME280;65772;51.096;17.006;2024-03-23T04:09:34;99242.20;;;13.16;61.85
76819;BME280;65772;51.096;17.006;2024-03-23T04:12:05;99237.93;;;13.20;61.88
76819;BME280;65772;51.096;17.006;2024-03-23T04:14:35;99233.13;;;13.22;61.53
76819;BME280;65772;51.096;17.006;2024-03-23T04:17:05;99236.39;;;13.23;61.44
76819;BME280;65772;51.096;17.006;2024-03-23T04:19:34;99237.94;;;13.22;61.26
76819;BME280;65772;51.096;17.006;2024-03-23T04:22:04;99242.23;;;13.22;61.55
76819;BME280;65772;51.096;17.006;2024-03-23T04:24:33;99243.77;;;13.21;61.37
76819;BME280;65772;51.096;17.006;2024-03-23T04:27:03;99244.79;;;13.21;61.39
76819;BME280;65772;51.096;17.006;2024-03-23T04:29:33;99244.61;;;13.20;61.29
76819;BME280;65772;51.096;17.006;2024-03-23T04:32:02;99244.10;;;13.18;61.33
76819;BME280;65772;51.096;17.006;2024-03-23T04:34:33;99236.54;;;13.16;61.39
76819;BME280;65772;51.096;17.006;2024-03-23T04:37:02;99236.37;;;13.14;61.41
76819;BME280;65772;51.096;17.006;2024-03-23T04:39:32;99236.86;;;13.12;61.46
76819;BME280;65772;51.096;17.006;2024-03-23T04:42:02;99238.06;;;13.10;61.23
76819;BME280;65772;51.096;17.006;2024-03-23T04:44:32;99236.85;;;13.08;61.57
76819;BME280;65772;51.096;17.006;2024-03-23T04:47:02;99232.05;;;13.08;61.39
76819;BME280;65772;51.096;17.006;2024-03-23T04:49:31;99225.37;;;13.07;61.41
76819;BME280;65772;51.096;17.006;2024-03-23T04:52:01;99223.83;;;13.05;61.46
76819;BME280;65772;51.096;17.006;2024-03-23T04:54:32;99223.31;;;13.05;61.43
76819;BME280;65772;51.096;17.006;2024-03-23T04:57:02;99216.79;;;13.04;61.62
76819;BME280;65772;51.096;17.006;2024-03-23T04:59:31;99208.91;;;13.04;61.14
76819;BME280;65772;51.096;17.006;2024-03-23T05:02:01;99213.38;;;13.02;61.57
76819;BME280;65772;51.096;17.006;2024-03-23T05:04:31;99208.08;;;13.02;61.32
76819;BME280;65772;51.096;17.006;2024-03-23T05:07:00;99203.79;;;13.01;61.50
76819;BME280;65772;51.096;17.006;2024-03-23T05:09:30;99203.62;;;13.01;61.36
76819;BME280;65772;51.096;17.006;2024-03-23T05:12:01;99199.67;;;13.01;61.38
76819;BME280;65772;51.096;17.006;2024-03-23T05:14:30;99199.00;;;13.02;61.33
76819;BME280;65772;51.096;17.006;2024-03-23T05:17:00;99201.71;;;13.03;61.27
76819;BME280;65772;51.096;17.006;2024-03-23T05:19:31;99201.38;;;13.05;61.32
76819;BME280;65772;51.096;17.006;2024-03-23T05:22:00;99200.35;;;13.07;61.02
76819;BME280;65772;51.096;17.006;2024-03-23T05:24:30;99200.02;;;13.09;61.00
76819;BME280;65772;51.096;17.006;2024-03-23T05:26:59;99197.63;;;13.11;61.08
76819;BME280;65772;51.096;17.006;2024-03-23T05:29:29;99193.52;;;13.13;61.08
76819;BME280;65772;51.096;17.006;2024-03-23T05:31:58;99189.06;;;13.14;60.99
76819;BME280;65772;51.096;17.006;2024-03-23T05:34:28;99188.55;;;13.15;60.90
76819;BME280;65772;51.096;17.006;2024-03-23T05:36:58;99186.15;;;13.14;60.84
76819;BME280;65772;51.096;17.006;2024-03-23T05:39:28;99185.98;;;13.15;60.59
76819;BME280;65772;51.096;17.006;2024-03-23T05:41:58;99180.67;;;13.15;60.84
76819;BME280;65772;51.096;17.006;2024-03-23T05:44:27;99176.91;;;13.15;60.68
76819;BME280;65772;51.096;17.006;2024-03-23T05:46:57;99178.27;;;13.14;60.67
76819;BME280;65772;51.096;17.006;2024-03-23T05:49:26;99171.08;;;13.12;60.67
76819;BME280;65772;51.096;17.006;2024-03-23T05:51:56;99172.95;;;13.12;60.55
76819;BME280;65772;51.096;17.006;2024-03-23T05:54:25;99171.92;;;13.12;60.87
76819;BME280;65772;51.096;17.006;2024-03-23T05:56:57;99172.61;;;13.13;60.83
76819;BME280;65772;51.096;17.006;2024-03-23T05:59:27;99165.25;;;13.13;60.85
76819;BME280;65772;51.096;17.006;2024-03-23T06:01:57;99159.77;;;13.13;60.87
76819;BME280;65772;51.096;17.006;2024-03-23T06:04:26;99154.80;;;13.14;60.58
76819;BME280;65772;51.096;17.006;2024-03-23T06:06:56;99148.80;;;13.14;60.62
76819;BME280;65772;51.096;17.006;2024-03-23T06:09:26;99153.44;;;13.15;60.94
76819;BME280;65772;51.096;17.006;2024-03-23T06:11:55;99157.72;;;13.16;60.89
76819;BME280;65772;51.096;17.006;2024-03-23T06:14:25;99164.73;;;13.16;60.97
76819;BME280;65772;51.096;17.006;2024-03-23T06:16:54;99166.80;;;13.16;60.82
76819;BME280;65772;51.096;17.006;2024-03-23T06:19:24;99171.79;;;13.17;60.67
76819;BME280;65772;51.096;17.006;2024-03-23T06:21:55;99174.70;;;13.19;60.58
76819;BME280;65772;51.096;17.006;2024-03-23T06:24:25;99183.44;;;13.20;60.56
76819;BME280;65772;51.096;17.006;2024-03-23T06:26:54;99187.20;;;13.21;60.78
76819;BME280;65772;51.096;17.006;2024-03-23T06:29:24;99184.30;;;13.21;60.63
76819;BME280;65772;51.096;17.006;2024-03-23T06:31:57;99173.15;;;13.21;60.58
76819;BME280;65772;51.096;17.006;2024-03-23T06:34:26;99168.02;;;13.22;60.56
76819;BME280;65772;51.096;17.006;2024-03-23T06:36:56;99167.16;;;13.23;60.84
76819;BME280;65772;51.096;17.006;2024-03-23T06:39:25;99144.71;;;13.23;60.34
76819;BME280;65772;51.096;17.006;2024-03-23T06:41:55;99127.06;;;13.24;60.40
76819;BME280;65772;51.096;17.006;2024-03-23T06:44:25;99123.95;;;13.25;60.36
76819;BME280;65772;51.096;17.006;2024-03-23T06:46:54;99117.60;;;13.26;60.47
76819;BME280;65772;51.096;17.006;2024-03-23T06:49:24;99115.21;;;13.27;60.33
76819;BME280;65772;51.096;17.006;2024-03-23T06:51:54;99121.21;;;13.28;60.37
76819;BME280;65772;51.096;17.006;2024-03-23T06:54:24;99120.52;;;13.29;60.39
76819;BME280;65772;51.096;17.006;2024-03-23T06:56:53;99116.08;;;13.30;60.39
76819;BME280;65772;51.096;17.006;2024-03-23T06:59:23;99112.99;;;13.31;60.18
76819;BME280;65772;51.096;17.006;2024-03-23T07:01:52;99106.65;;;13.34;60.08
76819;BME280;65772;51.096;17.006;2024-03-23T07:04:22;99106.28;;;13.37;60.02
76819;BME280;65772;51.096;17.006;2024-03-23T07:06:51;99100.11;;;13.40;60.05
76819;BME280;65772;51.096;17.006;2024-03-23T07:09:21;99092.75;;;13.44;60.24
76819;BME280;65772;51.096;17.006;2024-03-23T07:11:56;99083.97;;;13.48;60.65
76819;BME280;65772;51.096;17.006;2024-03-23T07:14:26;99074.70;;;13.51;60.48
76819;BME280;65772;51.096;17.006;2024-03-23T07:16:55;99068.53;;;13.55;60.37
76819;BME280;65772;51.096;17.006;2024-03-23T07:19:25;99061.82;;;13.59;60.52
76819;BME280;65772;51.096;17.006;2024-03-23T07:21:55;99061.31;;;13.62;60.40
76819;BME280;65772;51.096;17.006;2024-03-23T07:24:24;99049.30;;;13.64;60.33
76819;BME280;65772;51.096;17.006;2024-03-23T07:26:54;99044.82;;;13.67;60.37
76819;BME280;65772;51.096;17.006;2024-03-23T07:29:24;99042.74;;;13.69;60.03
76819;BME280;65772;51.096;17.006;2024-03-23T07:31:54;99044.80;;;13.70;59.90
76819;BME280;65772;51.096;17.006;2024-03-23T07:34:23;99038.63;;;13.71;60.01
76819;BME280;65772;51.096;17.006;2024-03-23T07:36:53;99030.39;;;13.74;59.97
76819;BME280;65772;51.096;17.006;2024-03-23T07:39:22;99026.27;;;13.76;59.84
76819;BME280;65772;51.096;17.006;2024-03-23T07:41:53;99026.42;;;13.77;59.31
76819;BME280;65772;51.096;17.006;2024-03-23T07:44:22;99019.89;;;13.80;59.58
76819;BME280;65772;51.096;17.006;2024-03-23T07:46:52;99014.73;;;13.82;59.53
76819;BME280;65772;51.096;17.006;2024-03-23T07:49:21;99007.69;;;13.85;59.49
76819;BME280;65772;51.096;17.006;2024-03-23T07:51:51;99002.33;;;13.92;60.37
76819;BME280;65772;51.096;17.006;2024-03-23T07:54:21;98992.67;;;13.99;59.98
76819;BME280;65772;51.096;17.006;2024-03-23T07:56:50;98985.45;;;14.05;60.03
76819;BME280;65772;51.096;17.006;2024-03-23T07:59:20;98972.36;;;14.10;59.92
76819;BME280;65772;51.096;17.006;2024-03-23T08:01:50;98967.01;;;14.14;59.65
76819;BME280;65772;51.096;17.006;2024-03-23T08:04:20;98961.52;;;14.16;59.48
76819;BME280;65772;51.096;17.006;2024-03-23T08:06:49;98958.73;;;14.19;59.53
76819;BME280;65772;51.096;17.006;2024-03-23T08:09:19;98960.41;;;14.22;59.62
76819;BME280;65772;51.096;17.006;2024-03-23T08:11:49;98961.60;;;14.25;59.65
76819;BME280;65772;51.096;17.006;2024-03-23T08:14:18;98963.81;;;14.29;59.63
76819;BME280;65772;51.096;17.006;2024-03-23T08:16:48;98959.47;;;14.33;59.41
76819;BME280;65772;51.096;17.006;2024-03-23T08:19:19;98953.11;;;14.35;58.75
76819;BME280;65772;51.096;17.006;2024-03-23T08:21:49;98948.64;;;14.37;58.22
76819;BME280;65772;51.096;17.006;2024-03-23T08:24:19;98942.64;;;14.39;58.58
76819;BME280;65772;51.096;17.006;2024-03-23T08:26:49;98938.98;;;14.43;58.89
76819;BME280;65772;51.096;17.006;2024-03-23T08:29:19;98931.07;;;14.46;58.66
76819;BME280;65772;51.096;17.006;2024-03-23T08:31:48;98916.45;;;14.49;58.62
76819;BME280;65772;51.096;17.006;2024-03-23T08:34:18;98904.89;;;14.53;58.77
76819;BME280;65772;51.096;17.006;2024-03-23T08:36:47;98906.24;;;14.56;58.37
76819;BME280;65772;51.096;17.006;2024-03-23T08:39:17;98902.79;;;14.58;58.27
76819;BME280;65772;51.096;17.006;2024-03-23T08:41:47;98899.86;;;14.60;58.46
76819;BME280;65772;51.096;17.006;2024-03-23T08:44:16;98886.94;;;14.62;58.17
76819;BME280;65772;51.096;17.006;2024-03-23T08:46:46;98880.23;;;14.64;58.35
76819;BME280;65772;51.096;17.006;2024-03-23T08:49:16;98868.17;;;14.68;58.12
76819;BME280;65772;51.096;17.006;2024-03-23T08:51:46;98863.36;;;14.69;57.72
76819;BME280;65772;51.096;17.006;2024-03-23T08:54:16;98861.64;;;14.69;57.63
76819;BME280;65772;51.096;17.006;2024-03-23T08:56:45;98861.97;;;14.70;57.98
76819;BME280;65772;51.096;17.006;2024-03-23T08:59:15;98868.49;;;14.70;57.67
76819;BME280;65772;51.096;17.006;2024-03-23T09:01:44;98864.36;;;14.71;57.97
76819;BME280;65772;51.096;17.006;2024-03-23T09:04:14;98862.81;;;14.72;57.58
76819;BME280;65772;51.096;17.006;2024-03-23T09:06:44;98849.77;;;14.71;57.86
76819;BME280;65772;51.096;17.006;2024-03-23T09:09:14;98844.44;;;14.72;57.95
76819;BME280;65772;51.096;17.006;2024-03-23T09:11:44;98831.55;;;14.72;58.29
76819;BME280;65772;51.096;17.006;2024-03-23T09:14:13;98820.57;;;14.70;58.10
76819;BME280;65772;51.096;17.006;2024-03-23T09:16:43;98817.14;;;14.71;58.35
76819;BME280;65772;51.096;17.006;2024-03-23T09:19:13;98809.92;;;14.71;58.69
76819;BME280;65772;51.096;17.006;2024-03-23T09:21:42;98804.26;;;14.70;58.64
76819;BME280;65772;51.096;17.006;2024-03-23T09:24:12;98802.20;;;14.70;58.55
76819;BME280;65772;51.096;17.006;2024-03-23T09:26:41;98801.69;;;14.69;58.35
76819;BME280;65772;51.096;17.006;2024-03-23T09:29:11;98791.38;;;14.69;58.34
76819;BME280;65772;51.096;17.006;2024-03-23T09:31:41;98793.63;;;14.68;58.22
76819;BME280;65772;51.096;17.006;2024-03-23T09:34:10;98789.16;;;14.68;57.64
76819;BME280;65772;51.096;17.006;2024-03-23T09:36:40;98785.03;;;14.68;57.55
76819;BME280;65772;51.096;17.006;2024-03-23T09:39:09;98774.55;;;14.68;58.09
76819;BME280;65772;51.096;17.006;2024-03-23T09:41:39;98763.03;;;14.70;58.52
76819;BME280;65772;51.096;17.006;2024-03-23T09:44:09;98753.86;;;14.74;58.37
76819;BME280;65772;51.096;17.006;2024-03-23T09:46:39;98750.05;;;14.77;58.18
76819;BME280;65772;51.096;17.006;2024-03-23T09:49:09;98743.44;;;14.83;58.19
76819;BME280;65772;51.096;17.006;2024-03-23T09:51:39;98745.95;;;14.87;58.34
76819;BME280;65772;51.096;17.006;2024-03-23T09:54:09;98739.39;;;14.90;58.29
76819;BME280;65772;51.096;17.006;2024-03-23T09:56:39;98732.14;;;14.93;57.90
76819;BME280;65772;51.096;17.006;2024-03-23T09:59:08;98724.52;;;14.95;57.75
76819;BME280;65772;51.096;17.006;2024-03-23T10:01:38;98717.29;;;14.97;58.35
76819;BME280;65772;51.096;17.006;2024-03-23T10:04:07;98706.59;;;15.00;58.11
76819;BME280;65772;51.096;17.006;2024-03-23T10:06:37;98703.07;;;15.05;57.69
76819;BME280;65772;51.096;17.006;2024-03-23T10:09:17;98699.23;;;15.09;57.76
76819;BME280;65772;51.096;17.006;2024-03-23T10:11:47;98694.23;;;15.12;57.69
76819;BME280;65772;51.096;17.006;2024-03-23T10:14:30;98690.55;;;15.15;57.36
76819;BME280;65772;51.096;17.006;2024-03-23T10:17:13;98682.20;;;15.20;57.45
76819;BME280;65772;51.096;17.006;2024-03-23T10:19:43;98676.83;;;15.24;57.25
76819;BME280;65772;51.096;17.006;2024-03-23T10:22:16;98674.19;;;15.27;57.32
76819;BME280;65772;51.096;17.006;2024-03-23T10:24:46;98675.66;;;15.32;57.09
76819;BME280;65772;51.096;17.006;2024-03-23T10:27:18;98674.34;;;15.39;57.18
76819;BME280;65772;51.096;17.006;2024-03-23T10:29:49;98671.67;;;15.45;56.84
76819;BME280;65772;51.096;17.006;2024-03-23T10:32:19;98671.05;;;15.50;56.78
76819;BME280;65772;51.096;17.006;2024-03-23T10:34:48;98666.02;;;15.54;56.75
76819;BME280;65772;51.096;17.006;2024-03-23T10:37:18;98662.34;;;15.58;57.01
76819;BME280;65772;51.096;17.006;2024-03-23T10:39:48;98660.55;;;15.62;57.14
76819;BME280;65772;51.096;17.006;2024-03-23T10:42:18;98658.74;;;15.67;58.40
76819;BME280;65772;51.096;17.006;2024-03-23T10:44:48;98658.23;;;15.76;58.60
76819;BME280;65772;51.096;17.006;2024-03-23T10:47:19;98654.63;;;15.84;59.64
76819;BME280;65772;51.096;17.006;2024-03-23T10:49:48;98653.94;;;15.93;59.77
76819;BME280;65772;51.096;17.006;2024-03-23T10:52:18;98648.95;;;16.02;59.25
76819;BME280;65772;51.096;17.006;2024-03-23T10:54:48;98643.63;;;16.09;59.65
76819;BME280;65772;51.096;17.006;2024-03-23T10:57:23;98637.13;;;16.16;59.53
76819;BME280;65772;51.096;17.006;2024-03-23T10:59:55;98628.38;;;16.23;58.30
76819;BME280;65772;51.096;17.006;2024-03-23T11:02:27;98623.80;;;16.28;58.51
76819;BME280;65772;51.096;17.006;2024-03-23T11:04:58;98623.69;;;16.32;58.55
76819;BME280;65772;51.096;17.006;2024-03-23T11:07:34;98613.95;;;16.37;58.22
76819;BME280;65772;51.096;17.006;2024-03-23T11:10:26;98603.52;;;16.41;58.45
76819;BME280;65772;51.096;17.006;2024-03-23T11:12:57;98605.34;;;16.44;57.66
76819;BME280;65772;51.096;17.006;2024-03-23T11:15:27;98602.16;;;16.48;56.94
76819;BME280;65772;51.096;17.006;2024-03-23T11:18:08;98599.00;;;16.51;56.59
76819;BME280;65772;51.096;17.006;2024-03-23T11:20:37;98596.65;;;16.55;56.52
76819;BME280;65772;51.096;17.006;2024-03-23T11:23:07;98594.52;;;16.59;56.33
76819;BME280;65772;51.096;17.006;2024-03-23T11:25:37;98590.14;;;16.63;55.89
76819;BME280;65772;51.096;17.006;2024-03-23T11:28:12;98583.68;;;16.66;55.68
76819;BME280;65772;51.096;17.006;2024-03-23T11:30:43;98582.78;;;16.68;55.58
76819;BME280;65772;51.096;17.006;2024-03-23T11:33:13;98576.55;;;16.70;54.49
76819;BME280;65772;51.096;17.006;2024-03-23T11:35:43;98575.11;;;16.72;54.62
76819;BME280;65772;51.096;17.006;2024-03-23T11:38:13;98566.08;;;16.74;54.29
76819;BME280;65772;51.096;17.006;2024-03-23T11:40:45;98566.71;;;16.76;53.23
76819;BME280;65772;51.096;17.006;2024-03-23T11:43:16;98561.04;;;16.76;52.39
76819;BME280;65772;51.096;17.006;2024-03-23T11:45:47;98561.37;;;16.77;52.02
76819;BME280;65772;51.096;17.006;2024-03-23T11:48:21;98564.46;;;16.77;50.94
76819;BME280;65772;51.096;17.006;2024-03-23T11:50:54;98549.48;;;16.77;51.01
76819;BME280;65772;51.096;17.006;2024-03-23T11:53:24;98548.61;;;16.77;50.45
76819;BME280;65772;51.096;17.006;2024-03-23T11:55:54;98548.62;;;16.77;50.60
76819;BME280;65772;51.096;17.006;2024-03-23T11:58:26;98565.35;;;16.75;50.02
76819;BME280;65772;51.096;17.006;2024-03-23T12:00:57;98569.20;;;16.74;49.74
76819;BME280;65772;51.096;17.006;2024-03-23T12:03:28;98568.89;;;16.73;49.73
76819;BME280;65772;51.096;17.006;2024-03-23T12:05:59;98586.51;;;16.71;49.49
76819;BME280;65772;51.096;17.006;2024-03-23T12:08:32;98593.42;;;16.70;49.83
76819;BME280;65772;51.096;17.006;2024-03-23T12:11:10;98594.35;;;16.67;50.40
76819;BME280;65772;51.096;17.006;2024-03-23T12:13:38;98590.30;;;16.63;50.52
76819;BME280;65772;51.096;17.006;2024-03-23T12:16:15;98591.60;;;16.58;50.50
76819;BME280;65772;51.096;17.006;2024-03-23T12:18:46;98591.37;;;16.53;49.52
76819;BME280;65772;51.096;17.006;2024-03-23T12:21:16;98591.81;;;16.49;49.30
76819;BME280;65772;51.096;17.006;2024-03-23T12:23:46;98587.40;;;16.45;48.84
76819;BME280;65772;51.096;17.006;2024-03-23T12:26:18;98588.48;;;16.43;48.76
76819;BME280;65772;51.096;17.006;2024-03-23T12:28:48;98586.64;;;16.42;48.93
76819;BME280;65772;51.096;17.006;2024-03-23T12:31:18;98590.65;;;16.40;49.13
76819;BME280;65772;51.096;17.006;2024-03-23T12:33:47;98596.38;;;16.37;49.10
76819;BME280;65772;51.096;17.006;2024-03-23T12:36:17;98587.97;;;16.36;48.91
76819;BME280;65772;51.096;17.006;2024-03-23T12:38:46;98579.92;;;16.34;48.63
76819;BME280;65772;51.096;17.006;2024-03-23T12:41:16;98586.02;;;16.31;48.48
76819;BME280;65772;51.096;17.006;2024-03-23T12:43:45;98564.55;;;16.29;48.37
76819;BME280;65772;51.096;17.006;2024-03-23T12:46:14;98579.20;;;16.28;48.65
76819;BME280;65772;51.096;17.006;2024-03-23T12:48:45;98581.92;;;16.29;48.99
76819;BME280;65772;51.096;17.006;2024-03-23T12:51:15;98603.62;;;16.29;49.02
76819;BME280;65772;51.096;17.006;2024-03-23T12:53:44;98605.50;;;16.30;49.05
76819;BME280;65772;51.096;17.006;2024-03-23T12:56:14;98591.55;;;16.31;49.06
76819;BME280;65772;51.096;17.006;2024-03-23T12:58:44;98620.11;;;16.31;48.75
76819;BME280;65772;51.096;17.006;2024-03-23T13:01:13;98605.51;;;16.30;48.14
76819;BME280;65772;51.096;17.006;2024-03-23T13:03:43;98612.11;;;16.27;47.73
76819;BME280;65772;51.096;17.006;2024-03-23T13:06:13;98618.29;;;16.20;47.80
76819;BME280;65772;51.096;17.006;2024-03-23T13:08:42;98680.72;;;16.14;48.68
76819;BME280;65772;51.096;17.006;2024-03-23T13:11:13;98691.66;;;16.01;48.86
76819;BME280;65772;51.096;17.006;2024-03-23T13:13:44;98713.48;;;15.84;48.63
76819;BME280;65772;51.096;17.006;2024-03-23T13:16:13;98724.21;;;15.61;48.77
76819;BME280;65772;51.096;17.006;2024-03-23T13:18:43;98711.89;;;15.36;49.50
76819;BME280;65772;51.096;17.006;2024-03-23T13:21:12;98717.83;;;15.19;50.22
76819;BME280;65772;51.096;17.006;2024-03-23T13:23:42;98728.11;;;15.10;50.80
76819;BME280;65772;51.096;17.006;2024-03-23T13:26:14;98735.13;;;15.00;51.72
76819;BME280;65772;51.096;17.006;2024-03-23T13:28:44;98736.11;;;14.91;52.43
76819;BME280;65772;51.096;17.006;2024-03-23T13:31:14;98740.78;;;14.76;52.52
76819;BME280;65772;51.096;17.006;2024-03-23T13:33:43;98770.54;;;14.59;52.96
76819;BME280;65772;51.096;17.006;2024-03-23T13:36:13;98771.91;;;14.44;52.48
76819;BME280;65772;51.096;17.006;2024-03-23T13:38:42;98780.94;;;14.34;52.66
76819;BME280;65772;51.096;17.006;2024-03-23T13:41:12;98784.60;;;14.28;52.81
76819;BME280;65772;51.096;17.006;2024-03-23T13:43:41;98787.77;;;14.21;52.40
76819;BME280;65772;51.096;17.006;2024-03-23T13:46:11;98787.14;;;14.15;52.29
76819;BME280;65772;51.096;17.006;2024-03-23T13:48:40;98799.06;;;14.07;52.04
76819;BME280;65772;51.096;17.006;2024-03-23T13:51:10;98814.41;;;14.00;52.26
76819;BME280;65772;51.096;17.006;2024-03-23T13:53:41;98834.55;;;13.91;52.84
76819;BME280;65772;51.096;17.006;2024-03-23T13:56:10;98846.98;;;13.80;53.05
76819;BME280;65772;51.096;17.006;2024-03-23T13:58:42;98874.88;;;13.66;53.19